createdAt,value
2018-09-18T00:00:28.129Z,3.52
2018-09-18T00:01:03.335Z,3.60
2018-09-18T00:01:38.540Z,3.65
2018-09-18T00:02:14.400Z,3.40
2018-09-18T00:02:49.861Z,3.45
2018-09-18T00:03:25.168Z,3.58
2018-09-18T00:04:00.399Z,3.60
2018-09-18T00:04:36.050Z,3.60
2018-09-18T00:05:11.267Z,3.60
2018-09-18T00:05:47.225Z,3.75
2018-09-18T00:06:22.568Z,3.60
2018-09-18T00:06:57.788Z,3.87
2018-09-18T00:07:32.995Z,3.62
2018-09-18T00:08:08.146Z,3.92
2018-09-18T00:08:44.036Z,3.65
2018-09-18T00:09:19.378Z,4.03
2018-09-18T00:09:54.600Z,3.60
2018-09-18T00:10:29.800Z,3.67
2018-09-18T00:11:05.114Z,3.50
2018-09-18T00:11:40.282Z,3.52
2018-09-18T00:12:15.918Z,4.03
2018-09-18T00:12:51.476Z,4.17
2018-09-18T00:13:26.650Z,3.58
2018-09-18T00:14:02.023Z,3.58
2018-09-18T00:14:37.243Z,3.87
2018-09-18T00:15:12.532Z,3.50
2018-09-18T00:15:48.184Z,3.98
2018-09-18T00:16:23.496Z,3.80
2018-09-18T00:16:58.726Z,4.10
2018-09-18T00:17:33.935Z,3.77
2018-09-18T00:18:09.106Z,3.70
2018-09-18T00:18:44.921Z,4.22
2018-09-18T00:19:20.263Z,3.55
2018-09-18T00:19:55.763Z,3.70
2018-09-18T00:20:30.926Z,4.10
2018-09-18T00:21:06.227Z,4.00
2018-09-18T00:21:41.440Z,3.87
2018-09-18T00:22:17.261Z,3.47
2018-09-18T00:22:52.586Z,4.20
2018-09-18T00:23:27.992Z,3.70
2018-09-18T00:24:03.547Z,4.08
2018-09-18T00:24:38.808Z,4.15
2018-09-18T00:25:14.449Z,4.10
2018-09-18T00:25:49.825Z,4.05
2018-09-18T00:26:24.997Z,4.05
2018-09-18T00:27:00.162Z,4.05
2018-09-18T00:27:35.338Z,4.10
2018-09-18T00:28:10.514Z,3.80
2018-09-18T00:28:46.123Z,4.22
2018-09-18T00:29:21.464Z,3.72
2018-09-18T00:29:56.684Z,3.90
2018-09-18T00:30:31.898Z,4.00
2018-09-18T00:31:07.758Z,3.58
2018-09-18T00:31:43.029Z,4.17
2018-09-18T00:32:18.124Z,3.90
2018-09-18T00:32:53.522Z,3.87
2018-09-18T00:33:28.693Z,3.80
2018-09-18T00:34:03.866Z,3.98
2018-09-18T00:34:39.055Z,3.55
2018-09-18T00:35:14.465Z,3.70
2018-09-18T00:35:49.771Z,4.50
2018-09-18T00:36:25.395Z,3.30
2018-09-18T00:37:00.560Z,3.98
2018-09-18T00:37:35.731Z,4.35
2018-09-18T00:38:10.956Z,4.00
2018-09-18T00:38:46.804Z,3.92
2018-09-18T00:39:22.230Z,4.35
2018-09-18T00:39:57.402Z,4.45
2018-09-18T00:40:32.572Z,3.92
2018-09-18T00:41:08.115Z,3.80
2018-09-18T00:41:43.543Z,4.20
2018-09-18T00:42:18.434Z,4.05
2018-09-18T00:42:53.658Z,3.85
2018-09-18T00:43:28.853Z,3.62
2018-09-18T00:44:04.046Z,4.17
2018-09-18T00:44:39.226Z,4.28
2018-09-18T00:45:14.568Z,3.90
2018-09-18T00:45:50.056Z,4.17
2018-09-18T00:46:25.417Z,3.77
2018-09-18T00:47:00.570Z,4.20
2018-09-18T00:47:35.794Z,3.77
2018-09-18T00:48:11.009Z,3.58
2018-09-18T00:48:46.944Z,3.80
2018-09-18T00:49:22.524Z,3.65
2018-09-18T00:49:57.719Z,4.30
2018-09-18T00:50:32.888Z,4.03
2018-09-18T00:51:08.126Z,4.22
2018-09-18T00:51:43.318Z,4.12
2018-09-18T00:52:18.523Z,4.10
2018-09-18T00:52:53.719Z,4.05
2018-09-18T00:53:28.918Z,3.98
2018-09-18T00:54:04.101Z,4.03
2018-09-18T00:54:39.267Z,4.25
2018-09-18T00:55:14.697Z,4.20
2018-09-18T00:55:50.015Z,4.33
2018-09-18T00:56:25.622Z,3.80
2018-09-18T00:57:01.008Z,3.75
2018-09-18T00:57:36.285Z,4.30
2018-09-18T00:58:11.499Z,4.60
2018-09-18T00:58:47.406Z,4.03
2018-09-18T00:59:22.704Z,4.10
2018-09-18T00:59:57.888Z,3.98
2018-09-18T01:00:33.311Z,3.95
2018-09-18T01:01:08.475Z,3.90
2018-09-18T01:01:43.707Z,3.50
2018-09-18T01:02:19.544Z,4.17
2018-09-18T01:02:55.098Z,4.00
2018-09-18T01:03:30.274Z,3.83
2018-09-18T01:04:05.494Z,4.22
2018-09-18T01:04:40.744Z,3.55
2018-09-18T01:05:16.412Z,3.60
2018-09-18T01:05:51.729Z,3.92
2018-09-18T01:06:27.427Z,4.15
2018-09-18T01:07:02.976Z,3.65
2018-09-18T01:07:38.234Z,4.17
2018-09-18T01:08:13.839Z,4.40
2018-09-18T01:08:49.260Z,3.87
2018-09-18T01:09:24.722Z,3.87
2018-09-18T01:09:59.956Z,3.47
2018-09-18T01:10:35.851Z,4.00
2018-09-18T01:11:11.017Z,4.00
2018-09-18T01:11:46.489Z,3.98
2018-09-18T01:12:21.749Z,4.00
2018-09-18T01:12:57.002Z,3.80
2018-09-18T01:13:32.198Z,4.00
2018-09-18T01:14:07.558Z,4.08
2018-09-18T01:14:42.894Z,3.70
2018-09-18T01:15:18.580Z,4.22
2018-09-18T01:15:53.955Z,3.67
2018-09-18T01:16:29.115Z,3.70
2018-09-18T01:17:04.346Z,4.08
2018-09-18T01:17:39.530Z,4.22
2018-09-18T01:18:15.050Z,3.75
2018-09-18T01:18:50.530Z,3.85
2018-09-18T01:19:25.780Z,3.77
2018-09-18T01:20:01.040Z,3.50
2018-09-18T01:20:36.263Z,3.47
2018-09-18T01:21:12.494Z,3.80
2018-09-18T01:21:48.263Z,3.42
2018-09-18T01:22:23.509Z,3.67
2018-09-18T01:22:58.711Z,4.15
2018-09-18T01:23:33.933Z,4.10
2018-09-18T01:24:09.123Z,3.72
2018-09-18T01:24:44.387Z,3.70
2018-09-18T01:25:19.941Z,3.58
2018-09-18T01:25:55.218Z,3.75
2018-09-18T01:26:30.411Z,3.95
2018-09-18T01:27:05.597Z,3.80
2018-09-18T01:27:40.909Z,3.10
2018-09-18T01:28:16.506Z,3.85
2018-09-18T01:28:52.147Z,4.10
2018-09-18T01:29:27.401Z,3.62
2018-09-18T01:30:02.650Z,3.47
2018-09-18T01:30:37.819Z,3.58
2018-09-18T01:31:13.819Z,3.58
2018-09-18T01:31:49.398Z,3.75
2018-09-18T01:32:24.679Z,3.90
2018-09-18T01:32:59.870Z,3.60
2018-09-18T01:33:35.503Z,3.65
2018-09-18T01:34:10.801Z,3.22
2018-09-18T01:34:46.321Z,3.35
2018-09-18T01:35:21.859Z,3.17
2018-09-18T01:35:57.045Z,3.52
2018-09-18T01:36:32.247Z,4.08
2018-09-18T01:37:07.488Z,3.55
2018-09-18T01:37:42.706Z,4.00
2018-09-18T01:38:17.982Z,3.25
2018-09-18T01:38:53.580Z,3.60
2018-09-18T01:39:28.266Z,3.80
2018-09-18T01:40:03.477Z,3.58
2018-09-18T01:40:38.665Z,3.98
2018-09-18T01:41:13.953Z,3.27
2018-09-18T01:41:49.306Z,3.67
2018-09-18T01:42:24.587Z,3.75
2018-09-18T01:42:59.790Z,3.33
2018-09-18T01:43:35.104Z,3.42
2018-09-18T01:44:10.533Z,4.12
2018-09-18T01:44:45.880Z,3.52
2018-09-18T01:45:21.169Z,3.80
2018-09-18T01:45:56.389Z,3.65
2018-09-18T01:46:31.565Z,4.10
2018-09-18T01:47:06.746Z,3.60
2018-09-18T01:47:42.114Z,3.60
2018-09-18T01:48:17.439Z,3.75
2018-09-18T01:48:52.774Z,3.55
2018-09-18T01:49:27.954Z,3.42
2018-09-18T01:50:03.133Z,3.33
2018-09-18T01:50:38.426Z,3.50
2018-09-18T01:51:13.719Z,3.33
2018-09-18T01:51:48.931Z,3.77
2018-09-18T01:52:24.062Z,3.67
2018-09-18T01:52:59.229Z,3.35
2018-09-18T01:53:34.415Z,3.30
2018-09-18T01:54:10.635Z,3.65
2018-09-18T01:54:46.137Z,3.72
2018-09-18T01:55:21.399Z,3.60
2018-09-18T01:55:56.698Z,4.10
2018-09-18T01:56:31.918Z,3.62
2018-09-18T01:57:07.730Z,3.87
2018-09-18T01:57:42.915Z,3.77
2018-09-18T01:58:18.286Z,3.67
2018-09-18T01:58:53.876Z,3.55
2018-09-18T01:59:29.164Z,3.40
2018-09-18T02:00:04.463Z,3.20
2018-09-18T02:00:39.629Z,3.98
2018-09-18T02:01:14.814Z,3.87
2018-09-18T02:01:50.187Z,3.52
2018-09-18T02:02:25.480Z,3.40
2018-09-18T02:03:00.634Z,4.20
2018-09-18T02:03:36.123Z,4.05
2018-09-18T02:04:11.348Z,3.85
2018-09-18T02:04:47.038Z,3.90
2018-09-18T02:05:22.447Z,3.17
2018-09-18T02:05:57.745Z,3.75
2018-09-18T02:06:33.002Z,3.85
2018-09-18T02:07:08.170Z,4.35
2018-09-18T02:07:43.320Z,3.80
2018-09-18T02:08:18.895Z,3.87
2018-09-18T02:08:54.188Z,3.55
2018-09-18T02:09:29.361Z,3.80
2018-09-18T02:10:05.543Z,3.47
2018-09-18T02:10:40.743Z,3.20
2018-09-18T02:11:16.025Z,3.58
2018-09-18T02:11:51.585Z,3.37
2018-09-18T02:12:26.886Z,3.10
2018-09-18T02:13:02.085Z,3.58
2018-09-18T02:13:37.290Z,3.55
2018-09-18T02:14:12.473Z,3.70
2018-09-18T02:14:47.830Z,3.80
2018-09-18T02:15:23.097Z,3.70
2018-09-18T02:15:58.303Z,3.60
2018-09-18T02:16:33.455Z,3.83
2018-09-18T02:17:08.620Z,3.92
2018-09-18T02:17:43.818Z,3.85
2018-09-18T02:18:19.215Z,4.45
2018-09-18T02:18:54.574Z,3.67
2018-09-18T02:19:29.789Z,3.75
2018-09-18T02:20:05.515Z,3.37
2018-09-18T02:20:40.672Z,3.92
2018-09-18T02:21:16.162Z,3.55
2018-09-18T02:21:51.657Z,3.67
2018-09-18T02:22:26.950Z,3.80
2018-09-18T02:23:02.098Z,3.70
2018-09-18T02:23:37.253Z,3.70
2018-09-18T02:24:12.417Z,4.25
2018-09-18T02:24:47.857Z,3.60
2018-09-18T02:25:23.233Z,4.00
2018-09-18T02:25:58.730Z,3.50
2018-09-18T02:26:33.932Z,3.30
2018-09-18T02:27:09.144Z,3.75
2018-09-18T02:27:44.322Z,3.62
2018-09-18T02:28:19.900Z,3.95
2018-09-18T02:28:55.462Z,3.65
2018-09-18T02:29:30.705Z,3.35
2018-09-18T02:30:06.325Z,4.12
2018-09-18T02:30:42.018Z,3.70
2018-09-18T02:31:17.296Z,3.40
2018-09-18T02:31:52.721Z,3.40
2018-09-18T02:32:27.938Z,3.90
2018-09-18T02:33:03.120Z,4.30
2018-09-18T02:33:38.334Z,3.75
2018-09-18T02:34:13.012Z,3.55
2018-09-18T02:34:48.643Z,3.87
2018-09-18T02:35:24.065Z,4.00
2018-09-18T02:35:59.291Z,3.50
2018-09-18T02:36:34.846Z,3.77
2018-09-18T02:37:10.079Z,3.80
2018-09-18T02:37:45.281Z,3.90
2018-09-18T02:38:20.716Z,4.37
2018-09-18T02:38:56.054Z,3.85
2018-09-18T02:39:31.257Z,3.87
2018-09-18T02:40:06.903Z,3.77
2018-09-18T02:40:42.171Z,3.95
2018-09-18T02:41:17.582Z,4.03
2018-09-18T02:41:53.217Z,3.85
2018-09-18T02:42:28.474Z,4.12
2018-09-18T02:43:03.654Z,4.03
2018-09-18T02:43:38.817Z,3.40
2018-09-18T02:44:14.086Z,3.47
2018-09-18T02:44:49.602Z,3.70
2018-09-18T02:45:24.791Z,3.58
2018-09-18T02:46:00.005Z,4.05
2018-09-18T02:46:35.228Z,3.27
2018-09-18T02:47:10.474Z,4.05
2018-09-18T02:47:45.765Z,3.65
2018-09-18T02:48:21.139Z,3.77
2018-09-18T02:48:56.383Z,4.03
2018-09-18T02:49:31.562Z,4.17
2018-09-18T02:50:06.737Z,3.70
2018-09-18T02:50:41.986Z,3.70
2018-09-18T02:51:17.901Z,3.45
2018-09-18T02:51:53.262Z,3.70
2018-09-18T02:52:28.427Z,3.77
2018-09-18T02:53:03.593Z,3.98
2018-09-18T02:53:38.770Z,3.60
2018-09-18T02:54:13.969Z,3.98
2018-09-18T02:54:49.399Z,4.12
2018-09-18T02:55:24.656Z,3.70
2018-09-18T02:55:59.975Z,3.83
2018-09-18T02:56:35.140Z,3.83
2018-09-18T02:57:10.286Z,3.67
2018-09-18T02:57:46.018Z,3.58
2018-09-18T02:58:21.287Z,3.87
2018-09-18T02:58:56.599Z,4.28
2018-09-18T02:59:31.771Z,4.22
2018-09-18T03:00:07.099Z,4.17
2018-09-18T03:00:42.291Z,3.98
2018-09-18T03:01:17.884Z,3.72
2018-09-18T03:01:53.410Z,3.55
2018-09-18T03:02:28.624Z,4.08
2018-09-18T03:03:03.811Z,4.33
2018-09-18T03:03:39.004Z,4.00
2018-09-18T03:04:14.224Z,4.45
2018-09-18T03:04:49.533Z,3.67
2018-09-18T03:05:24.435Z,3.98
2018-09-18T03:05:59.669Z,3.70
2018-09-18T03:06:34.924Z,4.35
2018-09-18T03:07:10.101Z,4.22
2018-09-18T03:07:45.380Z,4.28
2018-09-18T03:08:20.716Z,4.08
2018-09-18T03:08:56.023Z,4.30
2018-09-18T03:09:30.719Z,3.90
2018-09-18T03:10:06.374Z,4.12
2018-09-18T03:10:41.556Z,3.70
2018-09-18T03:11:17.240Z,3.70
2018-09-18T03:11:52.758Z,3.85
2018-09-18T03:12:28.137Z,4.28
2018-09-18T03:13:03.367Z,4.25
2018-09-18T03:13:38.537Z,4.05
2018-09-18T03:14:13.750Z,3.83
2018-09-18T03:14:49.057Z,4.03
2018-09-18T03:15:24.317Z,4.12
2018-09-18T03:15:59.515Z,3.95
2018-09-18T03:16:34.702Z,4.05
2018-09-18T03:17:09.943Z,4.10
2018-09-18T03:17:45.152Z,4.17
2018-09-18T03:18:20.479Z,4.15
2018-09-18T03:18:55.899Z,3.80
2018-09-18T03:19:31.092Z,3.92
2018-09-18T03:20:06.992Z,4.15
2018-09-18T03:20:42.203Z,4.00
2018-09-18T03:21:17.626Z,3.52
2018-09-18T03:21:53.005Z,4.30
2018-09-18T03:22:28.348Z,4.10
2018-09-18T03:23:03.553Z,3.87
2018-09-18T03:23:38.742Z,4.17
2018-09-18T03:24:13.911Z,3.87
2018-09-18T03:24:49.474Z,4.40
2018-09-18T03:25:24.766Z,4.37
2018-09-18T03:25:59.915Z,4.58
2018-09-18T03:26:35.087Z,4.65
2018-09-18T03:27:10.271Z,6.22
2018-09-18T03:27:45.773Z,4.47
2018-09-18T03:28:21.197Z,5.10
2018-09-18T03:28:56.494Z,5.55
2018-09-18T03:29:31.674Z,5.00
2018-09-18T03:30:07.228Z,5.17
2018-09-18T03:30:42.413Z,4.90
2018-09-18T03:31:17.911Z,5.20
2018-09-18T03:31:53.334Z,5.75
2018-09-18T03:32:28.668Z,6.20
2018-09-18T03:33:04.160Z,4.60
2018-09-18T03:33:39.418Z,4.90
2018-09-18T03:34:15.178Z,5.08
2018-09-18T03:34:51.026Z,4.67
2018-09-18T03:35:26.248Z,4.97
2018-09-18T03:36:01.435Z,4.90
2018-09-18T03:36:36.582Z,5.08
2018-09-18T03:37:12.458Z,4.47
2018-09-18T03:37:47.913Z,4.47
2018-09-18T03:38:23.545Z,4.55
2018-09-18T03:38:58.818Z,4.42
2018-09-18T03:39:33.974Z,4.58
2018-09-18T03:40:09.142Z,4.10
2018-09-18T03:40:44.375Z,4.58
2018-09-18T03:41:19.871Z,4.50
2018-09-18T03:41:55.407Z,4.50
2018-09-18T03:42:30.588Z,4.40
2018-09-18T03:43:05.778Z,4.70
2018-09-18T03:43:40.957Z,4.25
2018-09-18T03:44:16.292Z,4.67
2018-09-18T03:44:51.970Z,5.20
2018-09-18T03:45:27.572Z,4.90
2018-09-18T03:46:02.775Z,4.80
2018-09-18T03:46:37.942Z,5.60
2018-09-18T03:47:13.117Z,4.92
2018-09-18T03:47:48.653Z,4.35
2018-09-18T03:48:24.219Z,5.20
2018-09-18T03:48:59.447Z,4.55
2018-09-18T03:49:34.635Z,5.15
2018-09-18T03:50:09.470Z,5.30
2018-09-18T03:50:44.964Z,4.80
2018-09-18T03:51:20.369Z,5.08
2018-09-18T03:51:55.586Z,5.28
2018-09-18T03:52:30.738Z,5.62
2018-09-18T03:53:05.933Z,5.30
2018-09-18T03:53:41.111Z,5.97
2018-09-18T03:54:16.332Z,5.75
2018-09-18T03:54:51.780Z,5.92
2018-09-18T03:55:27.107Z,5.40
2018-09-18T03:56:02.331Z,5.92
2018-09-18T03:56:37.478Z,5.62
2018-09-18T03:57:12.669Z,5.72
2018-09-18T03:57:47.935Z,5.10
2018-09-18T03:58:23.282Z,5.37
2018-09-18T03:58:58.867Z,6.65
2018-09-18T03:59:34.066Z,6.08
2018-09-18T04:00:09.633Z,6.08
2018-09-18T04:00:44.810Z,6.37
2018-09-18T04:01:20.233Z,5.67
2018-09-18T04:01:55.507Z,6.03
2018-09-18T04:02:30.682Z,6.47
2018-09-18T04:03:06.020Z,5.47
2018-09-18T04:03:41.185Z,6.03
2018-09-18T04:04:16.610Z,6.22
2018-09-18T04:04:51.903Z,6.30
2018-09-18T04:05:27.466Z,5.83
2018-09-18T04:06:02.652Z,5.95
2018-09-18T04:06:37.861Z,5.62
2018-09-18T04:07:13.043Z,6.20
2018-09-18T04:07:48.455Z,6.28
2018-09-18T04:08:23.845Z,5.80
2018-09-18T04:08:59.034Z,6.20
2018-09-18T04:09:34.302Z,6.28
2018-09-18T04:10:09.489Z,6.40
2018-09-18T04:10:44.691Z,6.28
2018-09-18T04:11:20.558Z,6.35
2018-09-18T04:11:56.166Z,6.12
2018-09-18T04:12:31.367Z,6.50
2018-09-18T04:13:06.981Z,6.70
2018-09-18T04:13:42.142Z,6.30
2018-09-18T04:14:17.783Z,5.80
2018-09-18T04:14:53.453Z,6.53
2018-09-18T04:15:28.842Z,5.70
2018-09-18T04:16:04.110Z,6.25
2018-09-18T04:16:39.446Z,5.97
2018-09-18T04:17:14.676Z,7.15
2018-09-18T04:17:50.215Z,6.05
2018-09-18T04:18:26.877Z,6.25
2018-09-18T04:19:02.161Z,6.40
2018-09-18T04:19:37.302Z,5.90
2018-09-18T04:20:12.546Z,6.25
2018-09-18T04:20:48.126Z,5.95
2018-09-18T04:21:27.769Z,5.72
2018-09-18T04:22:02.903Z,6.37
2018-09-18T04:22:38.051Z,6.17
2018-09-18T04:23:13.235Z,5.87
2018-09-18T04:23:48.644Z,6.85
2018-09-18T04:24:24.452Z,6.37
2018-09-18T04:24:59.879Z,6.22
2018-09-18T04:25:35.162Z,6.22
2018-09-18T04:26:10.330Z,6.65
2018-09-18T04:26:45.078Z,6.42
2018-09-18T04:27:20.555Z,6.12
2018-09-18T04:27:55.955Z,6.62
2018-09-18T04:28:31.190Z,6.00
2018-09-18T04:29:06.863Z,6.22
2018-09-18T04:29:42.015Z,6.50
2018-09-18T04:30:17.706Z,7.22
2018-09-18T04:30:53.112Z,6.95
2018-09-18T04:31:28.530Z,6.50
2018-09-18T04:32:03.699Z,6.83
2018-09-18T04:32:38.866Z,6.75
2018-09-18T04:33:14.051Z,7.20
2018-09-18T04:33:49.562Z,6.87
2018-09-18T04:34:24.984Z,7.08
2018-09-18T04:35:00.392Z,6.50
2018-09-18T04:35:35.823Z,6.55
2018-09-18T04:36:11.090Z,6.67
2018-09-18T04:36:46.065Z,6.60
2018-09-18T04:37:21.921Z,6.95
2018-09-18T04:37:56.697Z,6.10
2018-09-18T04:38:31.885Z,6.30
2018-09-18T04:39:11.876Z,7.42
2018-09-18T04:39:47.759Z,6.70
2018-09-18T04:40:23.426Z,7.05
2018-09-18T04:40:59.026Z,6.22
2018-09-18T04:41:34.340Z,6.72
2018-09-18T04:42:09.908Z,6.12
2018-09-18T04:42:45.376Z,6.72
2018-09-18T04:43:20.853Z,6.37
2018-09-18T04:43:56.300Z,6.03
2018-09-18T04:44:31.583Z,6.30
2018-09-18T04:45:06.824Z,6.28
2018-09-18T04:45:41.991Z,6.42
2018-09-18T04:46:17.399Z,6.40
2018-09-18T04:46:52.756Z,6.25
2018-09-18T04:47:28.184Z,6.00
2018-09-18T04:48:03.366Z,6.60
2018-09-18T04:48:38.561Z,7.55
2018-09-18T04:49:13.736Z,6.58
2018-09-18T04:49:49.712Z,6.62
2018-09-18T04:50:25.139Z,7.22
2018-09-18T04:51:00.627Z,6.50
2018-09-18T04:51:35.828Z,6.47
2018-09-18T04:52:11.078Z,5.92
2018-09-18T04:52:46.264Z,5.72
2018-09-18T04:53:21.649Z,6.00
2018-09-18T04:53:56.959Z,6.85
2018-09-18T04:54:32.142Z,6.65
2018-09-18T04:55:07.745Z,6.12
2018-09-18T04:55:42.910Z,7.03
2018-09-18T04:56:18.154Z,5.70
2018-09-18T04:56:53.471Z,5.85
2018-09-18T04:57:28.729Z,6.08
2018-09-18T04:58:03.910Z,5.78
2018-09-18T04:58:39.111Z,6.33
2018-09-18T04:59:14.286Z,5.58
2018-09-18T04:59:49.703Z,6.30
2018-09-18T05:00:25.166Z,5.90
2018-09-18T05:00:59.969Z,5.58
2018-09-18T05:01:35.429Z,6.28
2018-09-18T05:02:10.711Z,5.55
2018-09-18T05:02:46.256Z,6.00
2018-09-18T05:03:21.842Z,5.67
2018-09-18T05:03:57.070Z,5.42
2018-09-18T05:04:32.290Z,6.50
2018-09-18T05:05:07.674Z,6.03
2018-09-18T05:05:42.874Z,5.78
2018-09-18T05:06:18.686Z,5.60
2018-09-18T05:06:53.995Z,5.62
2018-09-18T05:07:29.209Z,5.33
2018-09-18T05:08:04.480Z,5.05
2018-09-18T05:08:39.846Z,6.25
2018-09-18T05:09:15.049Z,5.65
2018-09-18T05:09:50.455Z,5.90
2018-09-18T05:10:26.022Z,6.03
2018-09-18T05:11:01.220Z,5.92
2018-09-18T05:11:36.401Z,5.50
2018-09-18T05:12:11.630Z,5.90
2018-09-18T05:12:46.895Z,5.70
2018-09-18T05:13:22.275Z,6.37
2018-09-18T05:13:57.598Z,7.67
2018-09-18T05:14:32.952Z,6.08
2018-09-18T05:15:08.130Z,5.50
2018-09-18T05:15:43.320Z,5.72
2018-09-18T05:16:18.875Z,6.30
2018-09-18T05:16:54.225Z,6.03
2018-09-18T05:17:29.493Z,6.42
2018-09-18T05:18:05.068Z,6.60
2018-09-18T05:18:40.364Z,5.95
2018-09-18T05:19:15.631Z,6.08
2018-09-18T05:19:50.864Z,6.10
2018-09-18T05:20:26.538Z,5.58
2018-09-18T05:21:01.736Z,5.40
2018-09-18T05:21:36.916Z,5.87
2018-09-18T05:22:12.149Z,5.78
2018-09-18T05:22:47.589Z,6.35
2018-09-18T05:23:22.955Z,5.72
2018-09-18T05:23:58.264Z,6.28
2018-09-18T05:24:33.438Z,6.00
2018-09-18T05:25:08.744Z,6.15
2018-09-18T05:25:43.908Z,5.58
2018-09-18T05:26:19.344Z,6.17
2018-09-18T05:26:55.658Z,4.95
2018-09-18T05:27:30.897Z,6.03
2018-09-18T05:28:06.206Z,6.08
2018-09-18T05:28:41.432Z,6.55
2018-09-18T05:29:16.775Z,5.78
2018-09-18T05:29:52.115Z,6.12
2018-09-18T05:30:27.333Z,5.40
2018-09-18T05:31:02.498Z,5.87
2018-09-18T05:31:37.816Z,7.10
2018-09-18T05:32:12.985Z,6.97
2018-09-18T05:32:48.833Z,5.62
2018-09-18T05:33:24.138Z,5.40
2018-09-18T05:33:59.426Z,6.05
2018-09-18T05:34:34.637Z,6.35
2018-09-18T05:35:09.837Z,6.17
2018-09-18T05:35:45.010Z,6.30
2018-09-18T05:36:20.290Z,5.87
2018-09-18T05:36:55.625Z,6.00
2018-09-18T05:37:31.091Z,5.67
2018-09-18T05:38:06.663Z,5.80
2018-09-18T05:38:41.891Z,6.10
2018-09-18T05:39:17.119Z,5.70
2018-09-18T05:39:52.669Z,6.12
2018-09-18T05:40:28.316Z,5.50
2018-09-18T05:41:03.684Z,6.10
2018-09-18T05:41:38.905Z,6.20
2018-09-18T05:42:14.447Z,6.10
2018-09-18T05:42:49.942Z,8.80
2018-09-18T05:43:25.374Z,6.35
2018-09-18T05:44:00.682Z,7.65
2018-09-18T05:44:35.888Z,5.92
2018-09-18T05:45:11.063Z,5.78
2018-09-18T05:45:46.303Z,7.35
2018-09-18T05:46:21.628Z,5.90
2018-09-18T05:46:57.106Z,5.70
2018-09-18T05:47:32.252Z,5.90
2018-09-18T05:48:07.536Z,6.30
2018-09-18T05:48:42.869Z,6.28
2018-09-18T05:49:18.513Z,6.28
2018-09-18T05:49:54.053Z,6.15
2018-09-18T05:50:29.397Z,6.22
2018-09-18T05:51:04.846Z,6.58
2018-09-18T05:51:40.051Z,6.75
2018-09-18T05:52:15.340Z,6.70
2018-09-18T05:52:50.611Z,6.92
2018-09-18T05:53:25.869Z,6.58
2018-09-18T05:54:01.133Z,6.67
2018-09-18T05:54:36.345Z,6.37
2018-09-18T05:55:11.557Z,6.47
2018-09-18T05:55:47.068Z,7.22
2018-09-18T05:56:22.347Z,6.97
2018-09-18T05:56:57.616Z,6.55
2018-09-18T05:57:32.809Z,7.40
2018-09-18T05:58:08.230Z,7.20
2018-09-18T05:58:43.440Z,6.92
2018-09-18T05:59:19.278Z,7.87
2018-09-18T05:59:54.546Z,7.00
2018-09-18T06:00:29.810Z,6.90
2018-09-18T06:01:05.019Z,6.87
2018-09-18T06:01:40.211Z,7.00
2018-09-18T06:02:15.550Z,7.15
2018-09-18T06:02:51.603Z,7.03
2018-09-18T06:03:26.947Z,7.05
2018-09-18T06:04:02.112Z,6.92
2018-09-18T06:04:37.338Z,7.22
2018-09-18T06:05:12.884Z,6.12
2018-09-18T06:05:48.186Z,7.08
2018-09-18T06:06:23.722Z,6.65
2018-09-18T06:06:59.005Z,6.45
2018-09-18T06:07:34.596Z,7.85
2018-09-18T06:08:09.776Z,6.00
2018-09-18T06:08:44.989Z,6.85
2018-09-18T06:09:20.426Z,6.47
2018-09-18T06:09:55.879Z,6.75
2018-09-18T06:10:31.122Z,7.12
2018-09-18T06:11:06.320Z,6.70
2018-09-18T06:11:41.474Z,6.97
2018-09-18T06:12:17.674Z,7.03
2018-09-18T06:12:53.007Z,6.53
2018-09-18T06:13:28.378Z,6.60
2018-09-18T06:14:03.611Z,6.20
2018-09-18T06:14:38.774Z,6.60
2018-09-18T06:15:13.983Z,7.17
2018-09-18T06:15:49.785Z,6.40
2018-09-18T06:16:25.055Z,6.67
2018-09-18T06:17:00.295Z,6.62
2018-09-18T06:17:35.446Z,7.20
2018-09-18T06:18:10.672Z,6.53
2018-09-18T06:18:45.948Z,6.50
2018-09-18T06:19:21.550Z,7.17
2018-09-18T06:19:56.780Z,6.65
2018-09-18T06:20:31.956Z,6.83
2018-09-18T06:21:07.334Z,6.55
2018-09-18T06:21:42.542Z,6.45
2018-09-18T06:22:17.949Z,6.55
2018-09-18T06:22:53.457Z,6.90
2018-09-18T06:23:28.786Z,6.62
2018-09-18T06:24:04.339Z,6.67
2018-09-18T06:24:39.544Z,6.83
2018-09-18T06:25:14.862Z,7.12
2018-09-18T06:25:50.254Z,6.40
2018-09-18T06:26:25.607Z,7.10
2018-09-18T06:27:00.848Z,7.00
2018-09-18T06:27:36.006Z,6.85
2018-09-18T06:28:11.173Z,7.53
2018-09-18T06:28:46.388Z,7.78
2018-09-18T06:29:21.866Z,7.67
2018-09-18T06:29:57.122Z,7.92
2018-09-18T06:30:32.349Z,7.28
2018-09-18T06:31:08.008Z,8.13
2018-09-18T06:31:43.186Z,7.87
2018-09-18T06:32:18.802Z,8.25
2018-09-18T06:32:54.726Z,8.10
2018-09-18T06:33:29.953Z,8.03
2018-09-18T06:34:05.186Z,7.83
2018-09-18T06:34:40.395Z,8.88
2018-09-18T06:35:16.290Z,9.03
2018-09-18T06:35:52.092Z,7.78
2018-09-18T06:36:27.742Z,8.95
2018-09-18T06:37:02.511Z,9.33
2018-09-18T06:37:37.866Z,9.88
2018-09-18T06:38:13.135Z,9.68
2018-09-18T06:38:48.563Z,8.95
2018-09-18T06:39:24.087Z,8.53
2018-09-18T06:39:59.433Z,9.63
2018-09-18T06:40:34.646Z,8.43
2018-09-18T06:41:09.850Z,9.68
2018-09-18T06:41:45.057Z,9.15
2018-09-18T06:42:20.704Z,9.70
2018-09-18T06:42:56.150Z,9.28
2018-09-18T06:43:31.461Z,9.48
2018-09-18T06:44:06.674Z,9.28
2018-09-18T06:44:41.879Z,9.45
2018-09-18T06:45:17.426Z,9.13
2018-09-18T06:45:52.746Z,9.40
2018-09-18T06:46:28.179Z,9.98
2018-09-18T06:47:03.362Z,9.30
2018-09-18T06:47:38.550Z,9.75
2018-09-18T06:48:13.921Z,9.68
2018-09-18T06:48:49.447Z,9.80
2018-09-18T06:49:24.960Z,10.82
2018-09-18T06:50:00.126Z,10.03
2018-09-18T06:50:35.338Z,9.43
2018-09-18T06:51:10.567Z,9.43
2018-09-18T06:51:45.295Z,10.82
2018-09-18T06:52:20.537Z,9.68
2018-09-18T06:52:55.798Z,11.08
2018-09-18T06:53:31.162Z,8.33
2018-09-18T06:54:06.390Z,9.68
2018-09-18T06:54:41.564Z,9.05
2018-09-18T06:55:16.845Z,9.25
2018-09-18T06:55:52.476Z,9.20
2018-09-18T06:56:28.054Z,9.88
2018-09-18T06:57:03.240Z,9.03
2018-09-18T06:57:38.491Z,9.40
2018-09-18T06:58:13.708Z,9.55
2018-09-18T06:58:49.587Z,10.28
2018-09-18T06:59:24.943Z,9.93
2018-09-18T07:00:00.140Z,9.43
2018-09-18T07:00:35.338Z,9.83
2018-09-18T07:01:10.533Z,10.03
2018-09-18T07:01:45.730Z,9.25
2018-09-18T07:02:21.301Z,8.83
2018-09-18T07:02:56.636Z,10.50
2018-09-18T07:03:31.833Z,9.73
2018-09-18T07:04:07.613Z,10.10
2018-09-18T07:04:42.818Z,10.23
2018-09-18T07:05:18.288Z,9.08
2018-09-18T07:05:54.354Z,10.28
2018-09-18T07:06:29.579Z,10.03
2018-09-18T07:07:04.973Z,10.18
2018-09-18T07:07:40.167Z,9.40
2018-09-18T07:08:15.838Z,10.20
2018-09-18T07:08:51.343Z,10.18
2018-09-18T07:09:26.895Z,9.63
2018-09-18T07:10:02.130Z,9.53
2018-09-18T07:10:37.324Z,9.43
2018-09-18T07:11:12.519Z,9.48
2018-09-18T07:11:48.012Z,9.28
2018-09-18T07:12:23.295Z,8.98
2018-09-18T07:12:59.577Z,9.38
2018-09-18T07:13:35.102Z,9.95
2018-09-18T07:14:10.316Z,9.25
2018-09-18T07:14:45.535Z,9.73
2018-09-18T07:15:20.931Z,9.90
2018-09-18T07:15:56.383Z,8.90
2018-09-18T07:16:31.121Z,9.43
2018-09-18T07:17:06.847Z,9.53
2018-09-18T07:17:42.190Z,10.28
2018-09-18T07:18:17.599Z,9.63
2018-09-18T07:18:53.087Z,9.83
2018-09-18T07:19:28.389Z,8.93
2018-09-18T07:20:03.986Z,10.48
2018-09-18T07:20:39.205Z,9.75
2018-09-18T07:21:14.434Z,10.65
2018-09-18T07:21:50.284Z,11.93
2018-09-18T07:22:25.716Z,10.48
2018-09-18T07:23:00.943Z,10.20
2018-09-18T07:23:36.454Z,9.58
2018-09-18T07:24:11.648Z,9.90
2018-09-18T07:24:46.957Z,11.12
2018-09-18T07:25:22.390Z,9.23
2018-09-18T07:25:58.160Z,10.00
2018-09-18T07:26:33.350Z,9.60
2018-09-18T07:27:08.562Z,10.05
2018-09-18T07:27:43.767Z,11.73
2018-09-18T07:28:19.146Z,10.15
2018-09-18T07:28:55.185Z,9.43
2018-09-18T07:29:30.525Z,9.93
2018-09-18T07:30:06.716Z,10.60
2018-09-18T07:30:42.054Z,9.93
2018-09-18T07:31:17.344Z,9.75
2018-09-18T07:31:52.848Z,10.18
2018-09-18T07:32:28.144Z,9.40
2018-09-18T07:33:03.391Z,10.30
2018-09-18T07:33:38.714Z,10.75
2018-09-18T07:34:14.118Z,10.95
2018-09-18T07:34:49.610Z,9.90
2018-09-18T07:35:25.338Z,10.15
2018-09-18T07:36:00.576Z,10.25
2018-09-18T07:36:35.960Z,10.32
2018-09-18T07:37:11.158Z,10.48
2018-09-18T07:37:46.406Z,10.00
2018-09-18T07:38:21.988Z,10.55
2018-09-18T07:38:57.365Z,10.35
2018-09-18T07:39:32.572Z,9.70
2018-09-18T07:40:07.787Z,9.28
2018-09-18T07:40:42.998Z,9.13
2018-09-18T07:41:18.505Z,10.03
2018-09-18T07:41:53.890Z,9.38
2018-09-18T07:42:29.129Z,9.63
2018-09-18T07:43:04.363Z,9.45
2018-09-18T07:43:39.531Z,10.80
2018-09-18T07:44:14.733Z,9.55
2018-09-18T07:44:50.064Z,9.23
2018-09-18T07:45:25.553Z,8.98
2018-09-18T07:46:00.723Z,9.23
2018-09-18T07:46:35.904Z,8.93
2018-09-18T07:47:11.106Z,9.30
2018-09-18T07:47:46.305Z,9.15
2018-09-18T07:48:21.626Z,9.23
2018-09-18T07:49:03.898Z,9.18
2018-09-18T07:49:39.199Z,9.63
2018-09-18T07:50:14.566Z,9.35